createdAt,value
2023-03-07T00:04:27.954Z,0.17
2023-03-07T00:09:31.881Z,0.16
2023-03-07T00:14:36.207Z,0.17
2023-03-07T00:19:43.544Z,0.14
2023-03-07T00:24:49.041Z,0.15
2023-03-07T00:29:52.999Z,0.18
2023-03-07T00:35:00.544Z,0.20
2023-03-07T00:40:06.444Z,0.23
2023-03-07T00:45:11.403Z,0.26
2023-03-07T00:50:15.205Z,0.30
2023-03-07T00:55:19.919Z,0.34
2023-03-07T01:00:23.555Z,0.34
2023-03-07T01:05:28.069Z,0.34
2023-03-07T01:10:33.718Z,0.36
2023-03-07T01:15:40.448Z,0.33
2023-03-07T01:20:44.126Z,0.31
2023-03-07T01:25:48.168Z,0.31
2023-03-07T01:30:59.729Z,0.35
2023-03-07T01:36:05.380Z,0.34
2023-03-07T01:41:10.727Z,0.32
2023-03-07T01:46:18.920Z,0.28
2023-03-07T01:51:34.449Z,0.28
2023-03-07T01:56:41.053Z,0.31
2023-03-07T02:01:44.937Z,0.33
2023-03-07T02:06:50.599Z,0.38
2023-03-07T02:11:54.722Z,0.37
2023-03-07T02:17:01.884Z,0.35
2023-03-07T02:22:26.201Z,0.36
2023-03-07T02:27:30.960Z,0.38
2023-03-07T02:32:35.127Z,0.42
2023-03-07T02:37:39.334Z,0.45
2023-03-07T02:42:43.802Z,0.45
2023-03-07T02:47:49.590Z,0.40
2023-03-07T02:52:55.224Z,0.33
2023-03-07T02:57:58.992Z,0.26
2023-03-07T03:03:04.563Z,0.21
2023-03-07T03:08:09.128Z,0.17
2023-03-07T03:13:17.914Z,0.10
2023-03-07T03:18:22.490Z,0.04
2023-03-07T03:23:30.328Z,-0.02
2023-03-07T03:28:36.604Z,-0.04
2023-03-07T03:33:44.265Z,-0.06
2023-03-07T03:38:48.282Z,-0.06
2023-03-07T03:43:52.713Z,-0.09
2023-03-07T03:48:57.539Z,-0.10
2023-03-07T03:54:02.753Z,-0.11
2023-03-07T03:59:06.519Z,-0.15
2023-03-07T04:04:10.792Z,-0.16
2023-03-07T04:09:15.628Z,-0.19
2023-03-07T04:14:24.129Z,-0.22
2023-03-07T04:19:29.524Z,-0.27
2023-03-07T04:24:34.428Z,-0.30
2023-03-07T04:29:40.127Z,-0.30
2023-03-07T04:34:54.787Z,-0.29
2023-03-07T04:39:58.638Z,-0.29
2023-03-07T04:45:04.782Z,-0.28
2023-03-07T04:50:10.276Z,-0.28
2023-03-07T04:55:15.960Z,-0.28
2023-03-07T05:00:21.677Z,-0.25
2023-03-07T05:05:26.090Z,-0.23
2023-03-07T05:10:31.792Z,-0.20
2023-03-07T05:15:36.627Z,-0.18
2023-03-07T05:20:43.446Z,-0.15
2023-03-07T05:25:47.585Z,-0.10
2023-03-07T05:30:53.328Z,-0.05
2023-03-07T05:36:02.922Z,-0.02
2023-03-07T05:41:08.055Z,0.01
2023-03-07T05:46:13.091Z,0.03
2023-03-07T05:51:17.213Z,0.07
2023-03-07T05:56:21.538Z,0.14
2023-03-07T06:01:25.782Z,0.19
2023-03-07T06:06:31.200Z,0.21
2023-03-07T06:11:35.428Z,0.23
2023-03-07T06:16:41.358Z,0.33
2023-03-07T06:22:07.050Z,0.42
2023-03-07T06:27:11.072Z,0.46
2023-03-07T06:32:15.277Z,0.45
2023-03-07T06:37:19.740Z,0.44
2023-03-07T06:42:23.959Z,0.45
2023-03-07T06:47:29.051Z,0.53
2023-03-07T06:52:34.450Z,0.64
2023-03-07T06:57:38.522Z,0.80
2023-03-07T07:02:42.410Z,0.95
2023-03-07T07:07:47.061Z,1.11
2023-03-07T07:12:54.841Z,1.29
2023-03-07T07:17:58.758Z,1.46
2023-03-07T07:23:03.068Z,1.65
2023-03-07T07:28:09.996Z,1.81
2023-03-07T07:33:16.427Z,1.95
2023-03-07T07:38:23.593Z,2.20
2023-03-07T07:43:27.297Z,2.41
2023-03-07T07:48:51.471Z,2.58
2023-03-07T07:53:55.433Z,2.65
2023-03-07T07:58:59.250Z,2.78
2023-03-07T08:04:03.551Z,2.91
2023-03-07T08:09:07.191Z,3.06
2023-03-07T08:14:10.997Z,3.21
2023-03-07T08:19:15.692Z,3.39
2023-03-07T08:24:21.790Z,3.56
2023-03-07T08:29:27.594Z,3.75
2023-03-07T08:34:35.100Z,3.97
2023-03-07T08:39:38.886Z,4.11
2023-03-07T08:44:42.660Z,4.32
2023-03-07T08:49:46.386Z,4.56
2023-03-07T08:54:50.052Z,4.76
2023-03-07T08:59:54.037Z,5.04
2023-03-07T09:04:57.842Z,5.23
2023-03-07T09:10:01.483Z,5.48
2023-03-07T09:15:07.331Z,5.67
2023-03-07T09:20:22.618Z,5.86
2023-03-07T09:25:26.448Z,6.08
2023-03-07T09:30:30.069Z,6.44
2023-03-07T09:35:33.745Z,6.68
2023-03-07T09:40:38.286Z,6.44
2023-03-07T09:46:18.164Z,6.25
2023-03-07T09:51:38.896Z,6.00
2023-03-07T09:56:49.701Z,5.87
2023-03-07T10:02:01.642Z,5.96
2023-03-07T10:07:05.663Z,6.19
2023-03-07T10:12:19.762Z,6.28
2023-03-07T10:17:59.069Z,6.38
2023-03-07T10:23:51.960Z,6.52
2023-03-07T10:28:57.857Z,6.71
2023-03-07T10:34:22.595Z,6.96
2023-03-07T10:39:37.134Z,7.12
2023-03-07T10:44:41.133Z,7.13
2023-03-07T10:49:46.642Z,6.90
2023-03-07T10:54:50.558Z,6.86
2023-03-07T10:59:54.083Z,6.96
2023-03-07T11:04:58.229Z,6.94
2023-03-07T11:10:22.935Z,6.86
2023-03-07T11:15:27.806Z,6.81
2023-03-07T11:20:49.484Z,6.84
2023-03-07T11:25:55.225Z,6.86
2023-03-07T11:31:20.174Z,6.72
2023-03-07T11:36:33.327Z,6.70
2023-03-07T11:41:39.180Z,6.55
2023-03-07T11:47:28.013Z,6.54
2023-03-07T11:52:57.583Z,6.77
2023-03-07T11:58:27.592Z,6.96
2023-03-07T12:03:49.478Z,7.03
2023-03-07T12:09:52.781Z,7.05
2023-03-07T12:15:22.851Z,7.20
2023-03-07T12:21:13.124Z,7.31
2023-03-07T12:26:50.743Z,7.27
2023-03-07T12:31:58.369Z,7.28
2023-03-07T12:37:14.021Z,7.31
2023-03-07T12:43:00.927Z,7.23
2023-03-07T12:48:09.132Z,7.31
2023-03-07T12:53:41.730Z,7.37
2023-03-07T12:58:52.557Z,7.40
2023-03-07T13:04:19.212Z,7.41
2023-03-07T13:09:24.169Z,7.56
2023-03-07T13:14:42.320Z,7.93
2023-03-07T13:19:52.699Z,8.15
2023-03-07T13:25:01.918Z,8.10
2023-03-07T13:30:08.672Z,7.93
2023-03-07T13:35:13.502Z,7.68
2023-03-07T13:40:27.390Z,7.57
2023-03-07T13:45:40.376Z,7.55
2023-03-07T13:50:49.910Z,7.47
2023-03-07T13:56:20.323Z,7.49
2023-03-07T14:01:30.463Z,7.60
2023-03-07T14:06:43.672Z,7.81
2023-03-07T14:12:10.522Z,7.86
2023-03-07T14:17:59.856Z,7.75
2023-03-07T14:23:53.746Z,7.67
2023-03-07T14:29:25.528Z,7.63
2023-03-07T14:34:35.053Z,7.50
2023-03-07T14:40:18.452Z,7.43
2023-03-07T14:45:58.963Z,7.38
2023-03-07T14:51:12.587Z,7.32
2023-03-07T14:56:30.178Z,7.24
2023-03-07T15:01:40.594Z,7.06
2023-03-07T15:06:44.648Z,6.95
2023-03-07T15:12:01.899Z,6.80
2023-03-07T15:17:10.921Z,6.75
2023-03-07T15:22:19.071Z,6.70
2023-03-07T15:27:28.973Z,6.65
2023-03-07T15:32:38.787Z,6.62
2023-03-07T15:37:55.479Z,6.59
2023-03-07T15:43:04.488Z,6.55
2023-03-07T15:48:21.237Z,6.51
2023-03-07T15:53:27.919Z,6.47
2023-03-07T15:58:32.158Z,6.43
2023-03-07T16:03:37.205Z,6.38
2023-03-07T16:08:41.370Z,6.34
2023-03-07T16:13:45.111Z,6.29
2023-03-07T16:18:50.463Z,6.26
2023-03-07T16:23:54.373Z,6.23
2023-03-07T16:29:00.258Z,6.20
2023-03-07T16:34:04.366Z,6.15
2023-03-07T17:00:04.534Z,5.90
2023-03-07T17:13:05.529Z,5.72
2023-03-07T17:18:18.903Z,5.74
2023-03-07T17:23:25.608Z,5.73
2023-03-07T17:28:32.372Z,5.74
2023-03-07T17:33:40.994Z,5.72
2023-03-07T17:38:45.454Z,5.67
2023-03-07T17:43:56.661Z,5.65
2023-03-07T17:49:03.253Z,5.62
2023-03-07T17:54:13.012Z,5.61
2023-03-07T17:59:18.023Z,5.59
2023-03-07T18:04:23.295Z,5.59
2023-03-07T18:09:32.880Z,5.60
2023-03-07T18:14:41.293Z,5.57
2023-03-07T18:19:49.285Z,5.53
2023-03-07T18:24:55.808Z,5.46
2023-03-07T18:30:00.550Z,5.45
2023-03-07T18:35:06.321Z,5.42
2023-03-07T18:40:11.791Z,5.42
2023-03-07T18:45:18.009Z,5.41
2023-03-07T18:50:24.520Z,5.44
2023-03-07T18:55:31.240Z,5.45
2023-03-07T19:00:39.556Z,5.44
2023-03-07T19:05:46.886Z,5.43
2023-03-07T19:10:53.526Z,5.42
2023-03-07T19:16:05.834Z,5.41
2023-03-07T19:21:14.677Z,5.37
2023-03-07T19:26:21.551Z,5.38
2023-03-07T19:31:33.235Z,5.41
2023-03-07T19:36:45.213Z,5.40
2023-03-07T19:41:54.593Z,5.37
2023-03-07T19:47:02.534Z,5.37
2023-03-07T19:52:09.605Z,5.38
2023-03-07T19:57:19.982Z,5.39
2023-03-07T20:02:33.287Z,5.41
2023-03-07T20:07:50.287Z,5.42
2023-03-07T20:12:58.308Z,5.42
2023-03-07T20:18:06.792Z,5.40
2023-03-07T20:23:12.984Z,5.39
2023-03-07T20:28:19.110Z,5.38
2023-03-07T20:33:26.690Z,5.36
2023-03-07T20:38:41.638Z,5.34
2023-03-07T20:43:47.956Z,5.31
2023-03-07T20:48:59.206Z,5.29
2023-03-07T20:54:08.034Z,5.28
2023-03-07T20:59:17.575Z,5.27
2023-03-07T21:04:24.431Z,5.27
2023-03-07T21:09:35.376Z,5.22
2023-03-07T21:14:42.118Z,4.55
2023-03-07T21:19:49.703Z,3.93
2023-03-07T21:24:55.753Z,3.56
2023-03-07T21:30:01.854Z,3.36
2023-03-07T21:35:07.569Z,3.20
2023-03-07T21:40:13.202Z,3.09
2023-03-07T21:45:18.452Z,3.00
2023-03-07T21:50:25.074Z,2.93
2023-03-07T21:55:30.697Z,2.87
2023-03-07T22:00:37.418Z,2.82
2023-03-07T22:05:41.850Z,2.77
2023-03-07T22:11:00.671Z,2.72
2023-03-07T22:16:07.494Z,2.68
2023-03-07T22:21:18.771Z,2.66
2023-03-07T22:26:22.422Z,2.60
2023-03-07T22:31:26.542Z,2.53
2023-03-07T22:36:30.290Z,2.42
2023-03-07T22:41:34.676Z,2.30
2023-03-07T22:46:45.604Z,2.18
2023-03-07T22:51:49.357Z,2.03
2023-03-07T22:56:53.137Z,1.90
2023-03-07T23:01:56.778Z,1.79
2023-03-07T23:07:00.356Z,1.67
2023-03-07T23:12:04.203Z,1.57
2023-03-07T23:17:07.881Z,1.45
2023-03-07T23:22:11.868Z,1.36
2023-03-07T23:27:15.623Z,1.32
2023-03-07T23:32:19.603Z,1.26
2023-03-07T23:37:23.321Z,1.21
2023-03-07T23:42:27.641Z,1.11
2023-03-07T23:47:31.342Z,1.05
2023-03-07T23:52:35.316Z,0.93
2023-03-07T23:57:40.566Z,0.83
